createdAt,value
2024-01-28T00:00:50.518Z,12.57
2024-01-28T00:03:19.047Z,14.93
2024-01-28T00:05:46.568Z,12.45
2024-01-28T00:08:13.875Z,16.23
2024-01-28T00:10:44.279Z,14.93
2024-01-28T00:13:11.728Z,10.32
2024-01-28T00:15:39.380Z,9.88
2024-01-28T00:18:07.566Z,9.13
2024-01-28T00:20:35.980Z,17.23
2024-01-28T00:23:04.263Z,11.13
2024-01-28T00:25:31.959Z,16.00
2024-01-28T00:27:59.311Z,14.95
2024-01-28T00:30:31.691Z,13.27
2024-01-28T00:32:59.411Z,16.10
2024-01-28T00:35:27.086Z,12.32
2024-01-28T00:37:56.623Z,16.33
2024-01-28T00:40:24.367Z,12.50
2024-01-28T00:42:51.677Z,8.82
2024-01-28T00:45:20.037Z,13.70
2024-01-28T00:47:47.481Z,12.85
2024-01-28T00:50:15.169Z,11.25
2024-01-28T00:52:43.150Z,11.00
2024-01-28T00:55:10.726Z,14.57
2024-01-28T00:57:38.271Z,14.43
2024-01-28T01:00:06.733Z,13.60
2024-01-28T01:02:37.146Z,13.48
2024-01-28T01:05:04.506Z,15.57
2024-01-28T01:07:31.943Z,14.07
2024-01-28T01:09:59.372Z,13.18
2024-01-28T01:12:28.247Z,11.57
2024-01-28T01:14:55.741Z,13.40
2024-01-28T01:17:22.961Z,14.75
2024-01-28T01:19:50.516Z,16.65
2024-01-28T01:22:17.873Z,11.93
2024-01-28T01:24:45.169Z,9.23
2024-01-28T01:27:12.728Z,17.25
2024-01-28T01:29:40.086Z,13.00
2024-01-28T01:32:07.994Z,13.38
2024-01-28T01:34:35.363Z,12.32
2024-01-28T01:37:03.059Z,13.85
2024-01-28T01:39:30.500Z,13.63
2024-01-28T01:47:17.079Z,13.03
2024-01-28T02:03:42.003Z,14.13
2024-01-28T02:06:09.494Z,18.60
2024-01-28T02:08:36.711Z,14.98
2024-01-28T02:11:06.960Z,15.52
2024-01-28T02:13:34.507Z,15.65
2024-01-28T02:16:01.772Z,16.10
2024-01-28T02:18:29.147Z,17.35
2024-01-28T02:20:56.541Z,11.30
2024-01-28T02:23:23.688Z,20.23
2024-01-28T02:25:51.488Z,13.27
2024-01-28T02:28:18.666Z,18.17
2024-01-28T02:30:46.134Z,13.85
2024-01-28T02:33:14.109Z,15.82
2024-01-28T02:35:41.590Z,14.32
2024-01-28T02:38:09.147Z,11.77
2024-01-28T02:40:36.245Z,13.05
2024-01-28T02:43:06.357Z,16.50
2024-01-28T02:45:33.951Z,12.88
2024-01-28T02:48:01.252Z,12.82
2024-01-28T02:50:28.414Z,16.08
2024-01-28T02:52:55.622Z,19.05
2024-01-28T02:55:22.884Z,15.32
2024-01-28T02:57:50.196Z,15.45
2024-01-28T03:00:18.394Z,15.13
2024-01-28T03:02:45.656Z,13.10
2024-01-28T03:05:13.221Z,17.00
2024-01-28T03:07:40.863Z,16.58
2024-01-28T03:10:08.546Z,21.02
2024-01-28T03:12:36.051Z,17.42
2024-01-28T03:15:03.646Z,17.85
2024-01-28T03:17:30.875Z,12.57
2024-01-28T03:19:58.148Z,17.38
2024-01-28T03:22:25.678Z,15.45
2024-01-28T03:24:53.833Z,18.77
2024-01-28T03:27:20.812Z,20.35
2024-01-28T03:29:47.918Z,18.13
2024-01-28T03:32:15.107Z,14.32
2024-01-28T03:34:42.090Z,18.42
2024-01-28T03:37:09.233Z,16.45
2024-01-28T03:39:36.500Z,18.45
2024-01-28T03:42:03.640Z,16.02
2024-01-28T03:44:30.949Z,17.40
2024-01-28T03:46:59.367Z,15.73
2024-01-28T03:49:26.509Z,13.82
2024-01-28T03:51:53.994Z,18.92
2024-01-28T03:54:21.510Z,12.68
2024-01-28T03:56:48.486Z,19.13
2024-01-28T03:59:15.579Z,15.80
2024-01-28T04:15:06.215Z,19.70
2024-01-28T04:17:33.681Z,14.38
2024-01-28T04:20:01.147Z,21.52
2024-01-28T04:22:28.615Z,14.77
2024-01-28T04:24:56.337Z,25.20
2024-01-28T04:27:26.263Z,16.73
2024-01-28T04:30:02.257Z,19.58
2024-01-28T04:32:29.877Z,12.82
2024-01-28T04:34:57.326Z,18.55
2024-01-28T04:37:27.716Z,13.48
2024-01-28T04:39:55.829Z,15.85
2024-01-28T04:42:26.148Z,18.58
2024-01-28T04:44:57.021Z,17.27
2024-01-28T04:47:24.317Z,13.30
2024-01-28T04:49:51.767Z,12.85
2024-01-28T04:52:19.677Z,13.57
2024-01-28T04:54:49.076Z,14.35
2024-01-28T04:57:19.532Z,12.65
2024-01-28T04:59:49.752Z,12.77
2024-01-28T05:02:22.291Z,18.02
2024-01-28T05:07:26.472Z,17.77
2024-01-28T05:09:53.851Z,14.77
2024-01-28T05:12:24.208Z,15.32
2024-01-28T05:14:52.097Z,21.25
2024-01-28T05:17:22.353Z,14.25
2024-01-28T05:19:49.730Z,14.27
2024-01-28T05:22:17.069Z,12.70
2024-01-28T05:24:46.640Z,14.18
2024-01-28T05:27:14.059Z,13.02
2024-01-28T05:29:41.347Z,10.27
2024-01-28T05:32:11.005Z,14.82
2024-01-28T05:34:38.400Z,17.77
2024-01-28T05:37:05.917Z,14.07
2024-01-28T05:39:37.637Z,13.55
2024-01-28T05:42:05.574Z,18.23
2024-01-28T05:47:10.825Z,15.02
2024-01-28T05:49:42.081Z,13.88
2024-01-28T05:52:34.864Z,16.55
2024-01-28T05:55:05.216Z,14.95
2024-01-28T05:57:32.947Z,17.52
2024-01-28T06:00:01.009Z,15.70
2024-01-28T06:05:48.712Z,21.65
2024-01-28T06:08:18.148Z,12.88
2024-01-28T06:10:48.417Z,14.10
2024-01-28T06:13:16.304Z,11.82
2024-01-28T06:16:01.318Z,13.02
2024-01-28T06:18:28.896Z,14.25
2024-01-28T06:21:06.750Z,13.75
2024-01-28T06:26:22.753Z,12.25
2024-01-28T06:31:56.394Z,16.75
2024-01-28T06:48:56.542Z,15.85
2024-01-28T06:51:23.933Z,14.30
2024-01-28T06:56:26.813Z,20.13
2024-01-28T07:12:50.919Z,17.67
2024-01-28T07:15:50.955Z,14.63
2024-01-28T07:18:26.535Z,19.90
2024-01-28T07:20:55.370Z,14.75
2024-01-28T07:23:22.450Z,14.02
2024-01-28T07:25:49.475Z,16.38
2024-01-28T07:28:18.917Z,14.43
2024-01-28T07:30:46.223Z,14.10
2024-01-28T07:33:14.650Z,18.88
2024-01-28T07:35:41.740Z,12.98
2024-01-28T07:38:14.060Z,17.27
2024-01-28T07:40:41.316Z,15.48
2024-01-28T07:43:08.657Z,12.13
2024-01-28T07:45:39.142Z,15.77
2024-01-28T07:48:06.845Z,13.65
2024-01-28T07:50:34.252Z,21.83
2024-01-28T07:53:01.829Z,15.95
2024-01-28T07:55:29.909Z,13.90
2024-01-28T07:57:57.554Z,17.45
2024-01-28T08:00:24.926Z,17.45
2024-01-28T08:02:53.799Z,25.63
2024-01-28T08:05:23.268Z,17.90
2024-01-28T08:07:51.064Z,17.67
2024-01-28T08:10:22.020Z,13.10
2024-01-28T08:12:49.675Z,13.52
2024-01-28T08:15:26.432Z,15.45
2024-01-28T08:17:58.303Z,15.48
2024-01-28T08:23:20.845Z,23.58
2024-01-28T08:37:24.389Z,18.25
2024-01-28T08:48:15.519Z,24.25
2024-01-28T08:53:32.946Z,25.45
2024-01-28T08:56:00.372Z,20.17
2024-01-28T08:58:28.463Z,18.50
2024-01-28T09:00:55.638Z,23.35
2024-01-28T09:03:25.235Z,17.63
2024-01-28T09:05:52.471Z,16.92
2024-01-28T09:08:20.615Z,24.25
2024-01-28T09:10:54.867Z,21.27
2024-01-28T09:16:01.300Z,20.30
2024-01-28T09:18:28.635Z,21.65
2024-01-28T09:20:55.801Z,20.20
2024-01-28T09:23:22.864Z,21.90
2024-01-28T09:25:49.966Z,24.85
2024-01-28T09:28:19.378Z,25.35
2024-01-28T09:30:50.160Z,23.08
2024-01-28T09:33:17.525Z,22.40
2024-01-28T09:35:53.721Z,21.23
2024-01-28T09:38:20.879Z,23.65
2024-01-28T09:40:49.440Z,19.45
2024-01-28T09:43:41.896Z,23.38
2024-01-28T09:46:10.728Z,20.10
2024-01-28T09:48:38.115Z,16.73
2024-01-28T09:51:05.456Z,20.73
2024-01-28T09:53:32.644Z,24.27
2024-01-28T09:56:00.881Z,23.67
2024-01-28T09:58:34.316Z,20.23
2024-01-28T10:01:04.296Z,23.73
2024-01-28T10:34:24.304Z,23.13
2024-01-28T10:37:01.409Z,17.05
2024-01-28T10:39:36.106Z,22.20
2024-01-28T10:42:06.820Z,18.00
2024-01-28T10:44:42.820Z,19.42
2024-01-28T10:47:13.997Z,22.13
2024-01-28T11:09:00.189Z,19.27
2024-01-28T11:11:32.266Z,23.13
2024-01-28T11:14:06.408Z,17.98
2024-01-28T11:16:49.510Z,19.40
2024-01-28T11:19:17.149Z,18.15
2024-01-28T11:30:15.963Z,17.83
2024-01-28T11:35:32.885Z,21.00
2024-01-28T11:38:05.759Z,20.17
2024-01-28T11:48:34.542Z,21.00
2024-01-28T11:51:03.843Z,17.92
2024-01-28T11:53:31.114Z,20.08
2024-01-28T11:56:10.737Z,22.05
2024-01-28T11:58:38.084Z,22.73
2024-01-28T12:04:33.999Z,25.37
2024-01-28T12:07:02.109Z,24.80
2024-01-28T12:09:31.687Z,20.20
2024-01-28T12:11:58.961Z,22.15
2024-01-28T12:14:26.203Z,23.13
2024-01-28T12:16:53.732Z,21.80
2024-01-28T12:19:20.912Z,22.45
2024-01-28T12:21:48.808Z,22.08
2024-01-28T12:24:16.144Z,25.27
2024-01-28T12:26:45.358Z,21.30
2024-01-28T12:29:12.669Z,21.60
2024-01-28T12:31:40.858Z,21.88
2024-01-28T12:34:18.144Z,21.92
2024-01-28T12:36:45.543Z,22.92
2024-01-28T12:39:12.941Z,24.40
2024-01-28T12:41:40.116Z,18.30
2024-01-28T12:44:09.219Z,16.48
2024-01-28T12:46:36.345Z,21.58
2024-01-28T12:49:03.544Z,19.17
2024-01-28T12:51:31.985Z,14.75
2024-01-28T12:53:59.066Z,16.17
2024-01-28T12:56:26.321Z,42.80
2024-01-28T12:58:54.014Z,24.73
2024-01-28T13:01:21.647Z,23.40
2024-01-28T13:03:49.375Z,26.90
2024-01-28T13:06:16.542Z,27.30
2024-01-28T13:08:43.493Z,22.55
2024-01-28T13:11:10.758Z,30.13
2024-01-28T13:13:39.279Z,22.85
2024-01-28T13:16:07.333Z,25.42
2024-01-28T13:18:36.329Z,19.98
2024-01-28T13:21:04.229Z,16.95
2024-01-28T13:23:31.248Z,17.23
2024-01-28T13:25:58.348Z,17.92
2024-01-28T13:28:25.758Z,18.17
2024-01-28T13:30:53.281Z,17.42
2024-01-28T13:33:20.679Z,19.05
2024-01-28T13:35:47.839Z,21.58
2024-01-28T13:38:15.207Z,22.33
2024-01-28T13:40:43.648Z,28.83
2024-01-28T13:43:10.676Z,28.30
2024-01-28T13:45:38.510Z,27.50
2024-01-28T13:48:06.817Z,27.02
2024-01-28T13:50:34.368Z,29.55
2024-01-28T13:53:01.599Z,28.90
2024-01-28T13:55:28.887Z,26.30
2024-01-28T13:57:56.556Z,24.10
2024-01-28T14:00:23.661Z,25.58
2024-01-28T14:02:50.815Z,34.33
2024-01-28T14:05:19.731Z,27.33
2024-01-28T14:07:48.247Z,30.17
2024-01-28T14:10:15.501Z,36.50
2024-01-28T14:12:42.799Z,30.08
2024-01-28T14:15:10.647Z,29.00
2024-01-28T14:17:39.115Z,24.17
2024-01-28T14:20:08.141Z,29.38
2024-01-28T14:22:35.376Z,23.63
2024-01-28T14:25:03.092Z,30.45
2024-01-28T14:30:12.005Z,35.33
2024-01-28T14:32:40.633Z,28.00
2024-01-28T14:35:08.270Z,35.60
2024-01-28T14:37:36.691Z,34.22
2024-01-28T14:40:04.899Z,28.48
2024-01-28T14:42:32.282Z,29.98
2024-01-28T14:44:59.329Z,31.10
2024-01-28T14:47:26.808Z,33.83
2024-01-28T14:49:53.870Z,28.77
2024-01-28T14:52:21.177Z,30.00
2024-01-28T14:54:48.467Z,29.35
2024-01-28T14:57:15.812Z,28.52
2024-01-28T14:59:42.892Z,27.17
2024-01-28T15:04:50.657Z,29.48
2024-01-28T15:07:20.338Z,32.78
2024-01-28T15:09:47.399Z,31.42
2024-01-28T15:12:19.403Z,32.88
2024-01-28T15:14:48.850Z,27.88
2024-01-28T15:17:16.173Z,32.97
2024-01-28T15:19:43.626Z,31.38
2024-01-28T15:22:21.942Z,36.72
2024-01-28T15:24:49.380Z,33.80
2024-01-28T15:27:25.570Z,31.73
2024-01-28T15:29:52.676Z,34.60
2024-01-28T15:32:20.019Z,33.47
2024-01-28T15:34:47.110Z,29.60
2024-01-28T15:37:14.349Z,39.20
2024-01-28T15:39:48.594Z,36.40
2024-01-28T15:42:15.596Z,40.10
2024-01-28T15:44:42.919Z,40.10
2024-01-28T15:47:10.499Z,36.90
2024-01-28T15:49:38.523Z,37.38
2024-01-28T15:52:06.240Z,39.30
2024-01-28T15:54:33.677Z,52.40
2024-01-28T15:57:01.523Z,41.97
2024-01-28T15:59:29.557Z,48.75
2024-01-28T16:01:56.837Z,47.80
2024-01-28T16:04:23.871Z,44.47
2024-01-28T16:06:51.187Z,45.80
2024-01-28T16:09:18.820Z,48.05
2024-01-28T16:11:45.832Z,43.80
2024-01-28T16:14:12.827Z,38.35
2024-01-28T16:16:41.993Z,49.80
2024-01-28T16:19:11.187Z,44.72
2024-01-28T16:24:16.735Z,48.70
2024-01-28T16:26:54.247Z,44.85
2024-01-28T16:37:31.644Z,53.78
2024-01-28T16:47:01.268Z,44.53
2024-01-28T16:52:36.861Z,37.08
2024-01-28T16:55:04.893Z,38.22
2024-01-28T16:57:56.465Z,39.03
2024-01-28T17:56:55.234Z,24.70
2024-01-28T17:59:23.304Z,29.13
2024-01-28T18:01:50.373Z,31.05
2024-01-28T18:04:18.695Z,30.98
2024-01-28T18:06:55.083Z,27.80
2024-01-28T18:09:23.563Z,42.35
2024-01-28T18:11:50.970Z,31.20
2024-01-28T18:14:19.065Z,32.03
2024-01-28T18:16:46.309Z,27.92
2024-01-28T18:19:14.318Z,30.95
2024-01-28T18:21:43.507Z,31.08
2024-01-28T18:24:11.148Z,36.75
2024-01-28T18:26:38.194Z,30.35
2024-01-28T18:29:05.284Z,37.85
2024-01-28T18:31:32.793Z,28.33
2024-01-28T18:34:00.439Z,37.80
2024-01-28T18:36:29.447Z,35.40
2024-01-28T18:38:59.490Z,40.15
2024-01-28T18:41:26.678Z,35.38
2024-01-28T18:44:00.202Z,38.97
2024-01-28T18:46:28.167Z,40.10
2024-01-28T18:48:55.379Z,27.75
2024-01-28T18:51:22.699Z,39.47
2024-01-28T18:53:50.260Z,40.90
2024-01-28T18:56:18.550Z,32.40
2024-01-28T18:58:45.725Z,44.05
2024-01-28T19:01:12.993Z,39.35
2024-01-28T19:03:40.908Z,35.65
2024-01-28T19:06:10.874Z,42.45
2024-01-28T19:08:40.221Z,36.60
2024-01-28T19:11:07.677Z,37.67
2024-01-28T19:13:50.719Z,35.25
2024-01-28T19:16:21.037Z,37.03
2024-01-28T19:21:29.197Z,34.70
2024-01-28T19:23:56.757Z,36.83
2024-01-28T19:26:27.488Z,38.13
2024-01-28T19:28:55.220Z,34.53
2024-01-28T19:31:24.369Z,36.88
2024-01-28T19:33:51.787Z,41.38
2024-01-28T19:36:19.087Z,31.73
2024-01-28T19:38:48.755Z,41.35
2024-01-28T19:41:15.818Z,35.15
2024-01-28T19:43:43.308Z,45.35
2024-01-28T19:46:10.534Z,33.83
2024-01-28T19:48:37.981Z,36.92
2024-01-28T19:51:05.409Z,35.67
2024-01-28T19:53:32.544Z,33.15
2024-01-28T19:55:59.611Z,37.45
2024-01-28T19:58:28.326Z,31.77
2024-01-28T20:05:00.765Z,30.87
2024-01-28T20:07:28.275Z,37.00
2024-01-28T20:10:00.913Z,36.05
2024-01-28T20:12:28.901Z,34.28
2024-01-28T20:14:56.437Z,32.33
2024-01-28T20:17:25.046Z,34.40
2024-01-28T20:19:52.650Z,37.10
2024-01-28T20:22:19.813Z,36.63
2024-01-28T20:24:47.451Z,39.30
2024-01-28T20:27:14.871Z,32.63
2024-01-28T20:29:41.926Z,32.13
2024-01-28T20:32:09.391Z,30.27
2024-01-28T20:34:36.869Z,33.25
2024-01-28T20:37:04.171Z,33.72
2024-01-28T20:39:32.228Z,33.00
2024-01-28T20:42:06.232Z,39.72
2024-01-28T20:44:34.709Z,36.83
2024-01-28T20:47:16.809Z,41.15
2024-01-28T20:49:45.456Z,40.30
2024-01-28T20:52:13.014Z,44.13
2024-01-28T20:54:40.193Z,41.35
2024-01-28T20:57:11.002Z,34.35
2024-01-28T20:59:43.627Z,34.67
2024-01-28T21:02:16.049Z,38.40
2024-01-28T21:04:45.098Z,38.08
2024-01-28T21:07:12.410Z,31.50
2024-01-28T21:09:41.228Z,35.70
2024-01-28T21:12:09.990Z,38.45
2024-01-28T21:14:38.563Z,38.03
2024-01-28T21:17:05.903Z,40.10
2024-01-28T21:19:33.027Z,37.55
2024-01-28T21:22:00.419Z,43.08
2024-01-28T21:24:27.801Z,33.58
2024-01-28T21:26:54.890Z,37.88
2024-01-28T21:29:23.863Z,39.58
2024-01-28T21:31:51.060Z,37.85
2024-01-28T21:34:18.461Z,35.05
2024-01-28T21:36:48.090Z,35.78
2024-01-28T21:39:15.889Z,34.40
2024-01-28T21:41:43.059Z,39.20
2024-01-28T21:44:10.205Z,48.28
2024-01-28T21:46:37.594Z,48.50
2024-01-28T21:49:05.402Z,50.97
2024-01-28T21:51:32.729Z,44.03
2024-01-28T21:54:00.075Z,41.33
2024-01-28T21:56:27.341Z,38.13
2024-01-28T21:58:54.374Z,37.70
2024-01-28T22:01:22.160Z,33.28
2024-01-28T22:03:49.947Z,35.95
2024-01-28T22:06:17.161Z,33.63
2024-01-28T22:08:44.314Z,29.40
2024-01-28T22:11:15.657Z,29.45
2024-01-28T22:13:43.458Z,27.42
2024-01-28T22:16:10.814Z,32.60
2024-01-28T22:18:37.898Z,33.72
2024-01-28T22:21:05.524Z,31.40
2024-01-28T22:23:32.902Z,27.65
2024-01-28T22:26:00.306Z,33.80
2024-01-28T22:28:27.747Z,26.35
2024-01-28T22:30:54.842Z,28.75
2024-01-28T22:33:22.912Z,28.55
2024-01-28T22:35:51.788Z,30.27
2024-01-28T22:38:19.103Z,31.23
2024-01-28T22:40:46.342Z,26.65
2024-01-28T22:43:13.680Z,32.42
2024-01-28T22:45:41.170Z,29.02
2024-01-28T22:48:08.853Z,28.48
2024-01-28T22:50:36.020Z,29.85
2024-01-28T22:53:03.916Z,34.30
2024-01-28T22:55:30.978Z,32.63
2024-01-28T22:57:58.447Z,28.92
2024-01-28T23:00:28.902Z,29.63
2024-01-28T23:02:56.140Z,27.88
2024-01-28T23:05:23.445Z,28.08
2024-01-28T23:07:50.541Z,28.52
2024-01-28T23:10:17.965Z,27.98
2024-01-28T23:12:45.037Z,27.67
2024-01-28T23:15:17.945Z,28.00
2024-01-28T23:17:51.021Z,30.95
2024-01-28T23:20:18.718Z,27.92
2024-01-28T23:22:46.026Z,31.88
2024-01-28T23:25:13.630Z,29.58
2024-01-28T23:27:42.230Z,27.38
2024-01-28T23:30:10.353Z,26.38
2024-01-28T23:32:37.527Z,32.85
2024-01-28T23:35:05.399Z,29.00
2024-01-28T23:37:32.468Z,28.90
2024-01-28T23:40:03.263Z,25.60
2024-01-28T23:42:30.544Z,30.13
2024-01-28T23:44:57.708Z,28.02
2024-01-28T23:47:25.821Z,29.58
2024-01-28T23:49:55.433Z,28.15
2024-01-28T23:52:22.976Z,27.95
2024-01-28T23:54:50.095Z,26.52
2024-01-28T23:57:17.175Z,28.73
2024-01-28T23:59:44.100Z,31.00
